Sopchoppy, Florida
Current Conditions -  °F | °C
As of 8:53 AM on Monday 24 Nov 2014 (Local Time) from KTLH Reporting Station
Heavy Rain Heavy Rain  
Wind Chill: 75°   Ceiling: 900
Heat Index: 75°   Visibility: 3mi
Dew Point: 71°   Wind: 6mph
Humidity: 87%   Direction: NA
Pressure: 29.85"   Gusts: NA
Location:  30.06°N, 84.49°W
Report Text: KTLH 241353Z VRB05KT 3SM +RA BR BKN009 OVC012 24/22 A2985 RMK AO2 RAE23B30 SLP107 P0010 T02390217 $
Loading
Personal Weather Stations






























Interactive Weather Map New forecast layout! Learn more

10-Day Weather Forecast

Advertisements
Track Severe Weather on mobile